Time;durP1;ratioP1;P1;durP2;ratioP2;P2;SDS_P1;SDS_P2;PMS_P1;PMS_P2;Temp;Humidity;BMP_temperature;BMP_pressure;BME280_temperature;BME280_humidity;BME280_pressure;Samples;Min_cycle;Max_cycle;Signal;HPM_P1;HPM_P2
2023/09/20 00:00:52;;;;;;;3.33;0.90;;;;;;;17.57;81.73;100079.94;5228004;28;20028;-73
2023/09/20 00:03:25;;;;;;;2.95;1.00;;;;;;;17.53;82.44;100091.69;5228642;28;20029;-73
2023/09/20 00:05:56;;;;;;;3.05;0.80;;;;;;;17.61;82.19;100086.69;5226484;28;20403;-72
2023/09/20 00:08:26;;;;;;;2.20;0.80;;;;;;;17.50;82.23;100083.97;5226157;28;20099;-73
2023/09/20 00:10:56;;;;;;;2.83;1.00;;;;;;;17.55;82.40;100085.34;5227814;28;20064;-72
2023/09/20 00:13:27;;;;;;;3.05;0.77;;;;;;;17.50;82.43;100086.63;5224903;28;20136;-72
2023/09/20 00:15:57;;;;;;;6.35;0.93;;;;;;;17.52;82.02;100076.78;5228268;28;20032;-73
2023/09/20 00:18:30;;;;;;;2.97;0.88;;;;;;;17.59;82.56;100078.03;5221175;28;20103;-73
2023/09/20 00:21:01;;;;;;;3.95;0.95;;;;;;;17.56;82.58;100080.88;5224708;28;20036;-72
2023/09/20 00:23:32;;;;;;;3.05;0.90;;;;;;;17.54;82.77;100080.16;5228140;28;20428;-73
2023/09/20 00:26:03;;;;;;;4.18;0.82;;;;;;;17.49;83.13;100071.72;5229331;28;20037;-72
2023/09/20 00:28:33;;;;;;;5.55;0.90;;;;;;;17.48;82.81;100081.44;5229782;28;20016;-72
2023/09/20 00:31:05;;;;;;;4.32;0.93;;;;;;;17.51;83.25;100075.09;5225963;28;20056;-73
2023/09/20 00:33:35;;;;;;;3.55;0.90;;;;;;;17.46;83.37;100074.59;5225015;28;20039;-72
2023/09/20 00:36:05;;;;;;;3.30;1.00;;;;;;;17.50;83.53;100070.78;5227298;28;20025;-72
2023/09/20 00:41:07;;;;;;;2.13;0.70;;;;;;;17.42;84.17;100070.47;5249701;22;20060;-72
2023/09/20 00:43:37;;;;;;;3.38;0.90;;;;;;;17.41;84.28;100071.41;5220872;28;20494;-73
2023/09/20 00:46:09;;;;;;;7.10;0.90;;;;;;;17.43;84.15;100077.44;5221153;28;20539;-72
2023/09/20 00:48:40;;;;;;;3.45;1.00;;;;;;;17.46;84.35;100079.88;5221207;28;20071;-73
2023/09/20 00:51:10;;;;;;;3.47;0.90;;;;;;;17.40;84.82;100081.16;5219821;28;20024;-73
2023/09/20 00:53:42;;;;;;;2.80;0.95;;;;;;;17.45;84.70;100078.19;5219986;28;20029;-73
2023/09/20 00:56:12;;;;;;;4.97;0.88;;;;;;;17.44;85.05;100085.25;5217290;28;20085;-73
2023/09/20 00:58:43;;;;;;;5.00;1.05;;;;;;;17.37;85.17;100077.88;5222061;28;20071;-73
2023/09/20 01:01:15;;;;;;;5.88;1.08;;;;;;;17.40;85.37;100085.56;5222186;28;20060;-72
2023/09/20 01:03:47;;;;;;;2.30;0.88;;;;;;;17.37;85.82;100083.16;5219614;28;20035;-73
2023/09/20 01:06:17;;;;;;;3.47;1.00;;;;;;;17.31;85.55;100083.56;5217647;28;20477;-73
2023/09/20 01:08:48;;;;;;;5.18;1.02;;;;;;;17.36;85.41;100078.84;5219900;28;20028;-73
2023/09/20 01:11:18;;;;;;;2.88;1.00;;;;;;;17.38;86.02;100074.28;5218847;28;20158;-72
2023/09/20 01:13:48;;;;;;;4.43;1.10;;;;;;;17.30;86.24;100076.59;5221454;28;20017;-73
2023/09/20 01:16:19;;;;;;;3.95;1.10;;;;;;;17.28;87.10;100087.25;5218476;28;20238;-72
2023/09/20 01:18:50;;;;;;;4.72;0.90;;;;;;;17.22;87.38;100090.34;5217248;28;20076;-73
2023/09/20 01:21:21;;;;;;;3.38;0.95;;;;;;;17.25;86.79;100089.25;5221408;28;20107;-72
2023/09/20 01:23:51;;;;;;;2.95;0.80;;;;;;;17.21;87.48;100091.31;5221189;28;20116;-73
2023/09/20 01:26:22;;;;;;;2.92;0.80;;;;;;;17.10;88.21;100095.63;5222332;28;20523;-73
2023/09/20 01:28:52;;;;;;;2.95;1.00;;;;;;;17.13;88.17;100093.63;5221768;28;20036;-73
2023/09/20 01:31:22;;;;;;;3.38;1.00;;;;;;;17.10;88.44;100085.06;5220633;28;20559;-73
2023/09/20 01:33:54;;;;;;;4.05;0.93;;;;;;;16.98;89.01;100088.56;5224999;28;20040;-72
2023/09/20 01:36:24;;;;;;;3.10;1.20;;;;;;;17.03;89.29;100095.22;5215273;28;20029;-72
2023/09/20 01:38:55;;;;;;;4.97;1.00;;;;;;;17.04;89.68;100082.84;5223772;28;20407;-73
2023/09/20 01:41:25;;;;;;;3.90;1.10;;;;;;;16.98;89.97;100081.47;5219041;28;20465;-72
2023/09/20 01:43:56;;;;;;;4.45;0.90;;;;;;;17.01;89.58;100083.91;5222225;28;20116;-73
2023/09/20 01:46:26;;;;;;;3.72;1.08;;;;;;;17.05;89.92;100079.25;5222129;28;20032;-72
2023/09/20 01:48:58;;;;;;;3.90;1.00;;;;;;;17.09;89.85;100078.94;5223196;28;20486;-73
2023/09/20 01:51:29;;;;;;;4.43;1.05;;;;;;;17.11;89.25;100081.50;5220044;28;20099;-72
2023/09/20 01:53:59;;;;;;;2.75;0.90;;;;;;;17.07;89.42;100077.34;5218945;28;20028;-73
2023/09/20 01:56:30;;;;;;;1.67;0.70;;;;;;;17.13;88.97;100079.59;5217365;28;20478;-73
2023/09/20 01:59:00;;;;;;;4.30;1.10;;;;;;;17.13;89.74;100079.59;5222510;28;20111;-73
2023/09/20 02:01:31;;;;;;;4.00;0.95;;;;;;;17.14;90.09;100078.63;5219975;28;20024;-73
2023/09/20 02:04:02;;;;;;;5.07;1.17;;;;;;;17.09;90.04;100070.16;5220462;28;20040;-72
2023/09/20 02:06:33;;;;;;;3.97;1.02;;;;;;;17.11;89.99;100070.94;5220239;28;20067;-73
2023/09/20 02:09:04;;;;;;;2.58;0.88;;;;;;;17.04;90.19;100070.50;5221291;28;20626;-73
2023/09/20 02:11:34;;;;;;;5.40;1.00;;;;;;;17.00;90.99;100084.03;5222910;28;20060;-73
2023/09/20 02:14:05;;;;;;;2.45;0.90;;;;;;;17.12;90.75;100081.38;5224954;28;20060;-72
2023/09/20 02:16:35;;;;;;;2.80;0.77;;;;;;;17.11;90.36;100084.13;5220994;28;20021;-73
2023/09/20 02:19:07;;;;;;;2.65;1.02;;;;;;;17.11;90.33;100092.06;5221584;28;20221;-72
2023/09/20 02:21:38;;;;;;;3.53;1.27;;;;;;;17.00;90.97;100091.94;5222908;28;20028;-73
2023/09/20 02:24:09;;;;;;;2.35;0.90;;;;;;;17.02;91.16;100088.25;5221486;28;20420;-72
2023/09/20 02:26:40;;;;;;;3.10;0.90;;;;;;;17.00;91.75;100089.31;5220894;28;20055;-73
2023/09/20 02:29:11;;;;;;;3.45;0.90;;;;;;;16.95;92.27;100079.06;5217798;28;20027;-73
2023/09/20 02:31:41;;;;;;;3.22;1.13;;;;;;;17.01;91.49;100083.91;5222465;28;20025;-73
2023/09/20 02:34:13;;;;;;;4.00;0.90;;;;;;;17.04;91.32;100082.84;5221407;28;20024;-72
2023/09/20 02:36:44;;;;;;;5.15;1.10;;;;;;;17.08;91.65;100082.53;5223353;28;20482;-73
2023/09/20 02:39:15;;;;;;;5.05;1.20;;;;;;;17.17;90.75;100078.41;5218610;28;20470;-72
2023/09/20 02:41:45;;;;;;;4.53;1.05;;;;;;;17.09;91.69;100083.38;5239273;28;20201;-73
2023/09/20 02:44:15;;;;;;;3.42;1.08;;;;;;;17.00;91.73;100084.03;5220206;28;20066;-73
2023/09/20 02:46:48;;;;;;;4.13;0.90;;;;;;;17.07;91.50;100080.00;5224056;28;20028;-73
2023/09/20 02:49:20;;;;;;;5.32;1.40;;;;;;;17.15;91.34;100067.94;5220302;28;20060;-73
2023/09/20 02:51:52;;;;;;;5.22;0.90;;;;;;;17.20;90.73;100070.25;5220418;28;20570;-73
2023/09/20 02:54:23;;;;;;;3.33;0.93;;;;;;;17.17;91.14;100067.84;5219674;28;20078;-73
2023/09/20 02:56:53;;;;;;;5.28;1.02;;;;;;;17.14;90.93;100068.91;5225453;28;20516;-73
2023/09/20 02:59:23;;;;;;;3.33;1.00;;;;;;;17.07;91.38;100066.78;5218763;28;20071;-73
2023/09/20 03:01:53;;;;;;;3.00;1.00;;;;;;;17.08;91.57;100057.91;5239614;28;20024;-73
2023/09/20 03:04:24;;;;;;;2.30;0.73;;;;;;;17.07;91.91;100059.72;5218743;28;20147;-72
2023/09/20 03:06:54;;;;;;;2.42;1.20;;;;;;;17.08;91.80;100053.50;5224663;28;20036;-73
2023/09/20 03:09:24;;;;;;;2.13;1.00;;;;;;;17.00;92.83;100057.63;5216106;28;20470;-72
2023/09/20 03:11:55;;;;;;;5.15;1.02;;;;;;;16.92;93.52;100050.25;5225508;28;20274;-73
2023/09/20 03:14:25;;;;;;;4.22;0.90;;;;;;;16.87;93.51;100054.13;5226087;28;20551;-73
2023/09/20 03:16:56;;;;;;;3.63;0.90;;;;;;;16.87;93.27;100051.50;5228789;28;20036;-73
2023/09/20 03:19:26;;;;;;;3.28;1.00;;;;;;;16.85;93.69;100059.53;5224832;28;20070;-73
2023/09/20 03:21:59;;;;;;;2.35;0.90;;;;;;;16.89;93.33;100057.50;5200343;28;20021;-73
2023/09/20 03:24:30;;;;;;;2.42;0.90;;;;;;;16.81;94.41;100058.03;5217618;28;20665;-73
2023/09/20 03:27:02;;;;;;;5.80;1.20;;;;;;;16.83;94.34;100055.31;5227323;28;20064;-73
2023/09/20 03:29:32;;;;;;;3.63;1.10;;;;;;;16.92;93.90;100052.00;5213340;28;20020;-72
2023/09/20 03:32:04;;;;;;;2.65;0.95;;;;;;;16.91;93.51;100052.97;5221851;28;20028;-73
2023/09/20 03:34:34;;;;;;;4.90;1.27;;;;;;;16.85;94.87;100053.41;5223554;28;20108;-73
2023/09/20 03:37:09;;;;;;;3.55;0.90;;;;;;;16.83;95.24;100044.75;5225868;28;20589;-73
2023/09/20 03:39:40;;;;;;;3.97;1.08;;;;;;;16.84;95.25;100051.72;5223826;28;20025;-73
2023/09/20 03:42:11;;;;;;;3.25;1.15;;;;;;;16.88;94.90;100047.91;5229025;28;20063;-73
2023/09/20 03:44:42;;;;;;;4.93;1.10;;;;;;;16.81;96.62;100055.41;5225228;28;20749;-73
2023/09/20 03:47:12;;;;;;;3.83;1.10;;;;;;;16.84;96.87;100049.09;5224063;28;20402;-72
2023/09/20 03:49:43;;;;;;;7.10;1.08;;;;;;;16.90;96.31;100049.50;5230363;28;20025;-73
2023/09/20 03:52:14;;;;;;;2.85;0.95;;;;;;;16.96;95.98;100049.06;5224952;28;20032;-72
2023/09/20 03:54:51;;;;;;;4.90;1.10;;;;;;;16.86;96.15;100050.66;5223048;28;20035;-73
2023/09/20 03:57:24;;;;;;;3.65;1.25;;;;;;;16.83;96.57;100050.03;5222344;28;20392;-73
2023/09/20 03:59:57;;;;;;;5.25;1.13;;;;;;;16.94;95.75;100047.50;5224708;28;20461;-73
2023/09/20 04:02:28;;;;;;;6.85;1.40;;;;;;;16.90;95.55;100046.88;5224372;28;20025;-72
2023/09/20 04:05:10;;;;;;;4.63;0.98;;;;;;;16.84;96.24;100041.16;5225947;28;20032;-73
2023/09/20 04:07:41;;;;;;;6.25;1.35;;;;;;;16.87;95.71;100047.09;5226205;28;20292;-73
2023/09/20 04:10:11;;;;;;;6.30;1.20;;;;;;;16.87;96.41;100041.81;5225303;28;20059;-73
2023/09/20 04:12:42;;;;;;;2.70;1.15;;;;;;;16.90;95.94;100041.59;5200460;28;20035;-73
2023/09/20 04:15:12;;;;;;;6.03;1.60;;;;;;;16.96;95.52;100041.16;5227436;28;20017;-73
2023/09/20 04:17:43;;;;;;;4.72;1.20;;;;;;;16.91;95.96;100035.34;5241047;28;20107;-73
2023/09/20 04:20:13;;;;;;;4.05;1.10;;;;;;;16.91;96.33;100034.50;5224108;28;20102;-73
2023/09/20 04:22:43;;;;;;;3.50;1.15;;;;;;;17.02;96.07;100031.94;5224445;28;20033;-73
2023/09/20 04:25:14;;;;;;;2.45;0.90;;;;;;;17.03;95.42;100031.84;5224505;28;20036;-73
2023/09/20 04:27:46;;;;;;;1.83;0.85;;;;;;;17.04;95.35;100027.41;5224091;28;20491;-73
2023/09/20 04:30:18;;;;;;;2.78;1.20;;;;;;;17.05;94.93;100029.09;5221735;28;20017;-72
2023/09/20 04:32:48;;;;;;;5.88;1.15;;;;;;;16.89;96.22;100034.63;5222423;28;20489;-73
2023/09/20 04:35:19;;;;;;;4.97;1.52;;;;;;;16.89;96.61;100031.97;5224539;28;20035;-73
2023/09/20 04:37:49;;;;;;;3.30;1.00;;;;;;;16.91;96.02;100026.56;5227976;28;20113;-73
2023/09/20 04:40:21;;;;;;;6.15;1.15;;;;;;;16.96;96.07;100029.75;5205520;28;20036;-72
2023/09/20 04:42:51;;;;;;;3.00;0.90;;;;;;;16.86;97.13;100031.34;5211647;28;20075;-72
2023/09/20 04:45:22;;;;;;;8.75;1.20;;;;;;;16.78;97.49;100033.69;5217244;28;20469;-72
2023/09/20 04:47:52;;;;;;;5.93;1.33;;;;;;;16.82;96.86;100027.22;5224603;28;20052;-73
2023/09/20 04:50:24;;;;;;;2.47;1.20;;;;;;;16.73;98.00;100025.22;5224921;28;20090;-72
2023/09/20 04:52:55;;;;;;;2.47;1.20;;;;;;;16.76;97.91;100026.81;5224668;28;20068;-73
2023/09/20 04:55:25;;;;;;;4.55;1.08;;;;;;;16.73;97.45;100027.03;5221359;28;20020;-72
2023/09/20 04:57:56;;;;;;;4.35;1.50;;;;;;;16.74;97.25;100034.00;5228706;28;20097;-73
2023/09/20 05:00:33;;;;;;;3.75;1.20;;;;;;;16.72;97.46;100033.25;5223275;28;20033;-72
2023/09/20 05:03:04;;;;;;;3.40;1.00;;;;;;;16.77;97.26;100041.69;5223452;28;20025;-73
2023/09/20 05:05:34;;;;;;;4.07;1.15;;;;;;;16.72;98.34;100036.72;5212225;28;20040;-73
2023/09/20 05:08:05;;;;;;;3.50;1.05;;;;;;;16.71;97.93;100040.31;5223843;28;20025;-73
2023/09/20 05:10:35;;;;;;;5.32;1.10;;;;;;;16.73;97.79;100034.94;5221093;28;20993;-72
2023/09/20 05:13:06;;;;;;;3.78;1.13;;;;;;;16.66;98.97;100031.03;5224831;28;20044;-72
2023/09/20 05:15:37;;;;;;;6.28;1.27;;;;;;;16.56;99.73;100038.72;5224027;28;20032;-72
2023/09/20 05:18:07;;;;;;;3.72;1.17;;;;;;;16.59;99.54;100041.16;5227653;28;20067;-73
2023/09/20 05:20:38;;;;;;;4.90;1.10;;;;;;;16.65;98.82;100030.19;5224131;28;20099;-72
2023/09/20 05:23:08;;;;;;;3.92;1.20;;;;;;;16.60;100.00;100031.44;5225043;28;20056;-72
2023/09/20 05:25:39;;;;;;;5.43;1.30;;;;;;;16.66;100.00;100047.72;5223845;28;20032;-73
2023/09/20 05:28:10;;;;;;;5.15;1.20;;;;;;;16.66;100.00;100038.94;5219620;28;20047;-73
2023/09/20 05:30:44;;;;;;;3.65;1.35;;;;;;;16.74;99.04;100044.53;5225517;28;20060;-73
2023/09/20 05:33:14;;;;;;;4.97;1.17;;;;;;;16.77;99.29;100042.56;5222577;28;20028;-73
2023/09/20 05:35:46;;;;;;;6.53;1.10;;;;;;;16.91;98.95;100038.00;5224547;28;20545;-73
2023/09/20 05:38:17;;;;;;;3.20;1.00;;;;;;;16.90;99.27;100043.38;5227862;28;20028;-72
2023/09/20 05:40:47;;;;;;;5.82;1.27;;;;;;;16.93;99.29;100045.78;5225737;28;20035;-73
2023/09/20 05:43:17;;;;;;;4.75;1.10;;;;;;;16.96;99.37;100046.44;5219659;28;20068;-72
2023/09/20 05:45:48;;;;;;;6.82;1.27;;;;;;;17.03;98.59;100036.28;5224154;28;20021;-73
2023/09/20 05:48:18;;;;;;;5.20;1.48;;;;;;;17.01;98.31;100036.38;5226677;28;20039;-73
2023/09/20 05:50:49;;;;;;;5.93;1.45;;;;;;;17.12;98.06;100038.28;5221171;28;20017;-72
2023/09/20 05:53:21;;;;;;;6.10;1.10;;;;;;;17.29;97.18;100040.56;5224054;28;20078;-73
2023/09/20 05:55:51;;;;;;;7.43;1.58;;;;;;;17.38;96.14;100043.44;5222791;28;20079;-73
2023/09/20 05:58:22;;;;;;;5.20;1.13;;;;;;;17.45;95.89;100035.91;5224715;28;20052;-73
2023/09/20 06:00:52;;;;;;;3.88;1.10;;;;;;;17.39;96.27;100042.47;5222174;28;20035;-73
2023/09/20 06:03:22;;;;;;;3.15;1.00;;;;;;;17.48;95.11;100038.34;5222318;28;20456;-73
2023/09/20 06:05:54;;;;;;;3.80;1.05;;;;;;;17.66;95.06;100047.56;5217694;28;20112;-73
2023/09/20 06:08:25;;;;;;;3.03;1.17;;;;;;;17.76;94.38;100045.94;5221241;28;20458;-72
2023/09/20 06:10:55;;;;;;;5.05;1.10;;;;;;;17.78;95.13;100039.56;5221443;28;20091;-73
2023/09/20 06:13:25;;;;;;;6.82;1.20;;;;;;;17.72;95.13;100040.03;5224811;28;20029;-73
2023/09/20 06:15:55;;;;;;;5.10;1.30;;;;;;;17.94;93.97;100045.44;5224818;28;20036;-73
2023/09/20 06:18:26;;;;;;;4.18;1.10;;;;;;;17.91;94.13;100044.81;5228095;28;20036;-72
2023/09/20 06:21:00;;;;;;;4.68;1.25;;;;;;;17.92;93.77;100042.06;5225971;28;20343;-73
2023/09/20 06:23:31;;;;;;;4.60;1.23;;;;;;;18.20;93.24;100043.50;5225613;28;20471;-73
2023/09/20 06:26:05;;;;;;;4.00;0.95;;;;;;;18.23;92.56;100044.09;5243860;28;20497;-73
2023/09/20 06:28:36;;;;;;;6.57;1.75;;;;;;;18.46;91.81;100052.97;5222712;28;20021;-73
2023/09/20 06:31:16;;;;;;;3.60;1.20;;;;;;;18.56;92.21;100053.97;5232737;28;20265;-73
2023/09/20 06:33:49;;;;;;;2.88;0.90;;;;;;;18.63;90.96;100058.69;5226163;28;20036;-73
2023/09/20 06:36:20;;;;;;;4.00;1.30;;;;;;;18.65;91.55;100051.47;5231306;28;20024;-73
2023/09/20 06:38:51;;;;;;;3.50;1.00;;;;;;;18.70;91.37;100059.06;5225507;28;20276;-73
2023/09/20 06:41:23;;;;;;;5.13;1.30;;;;;;;19.04;90.48;100054.50;5254252;22;20071;-73
2023/09/20 06:43:56;;;;;;;4.97;1.10;;;;;;;18.93;90.42;100056.31;5225822;28;20021;-73
2023/09/20 06:46:26;;;;;;;6.07;0.93;;;;;;;19.07;89.18;100056.91;5227666;28;20027;-72
2023/09/20 06:48:57;;;;;;;5.55;1.27;;;;;;;19.20;88.96;100041.78;5228259;28;20025;-73
2023/09/20 06:51:28;;;;;;;2.15;0.90;;;;;;;19.10;88.21;100054.00;5226426;28;20055;-72
2023/09/20 06:53:58;;;;;;;4.65;1.33;;;;;;;19.12;88.47;100053.91;5229870;28;20036;-72
2023/09/20 06:56:29;;;;;;;6.70;1.88;;;;;;;19.05;89.02;100061.50;5231102;28;20028;-73
2023/09/20 06:59:01;;;;;;;6.20;1.10;;;;;;;19.01;90.15;100065.34;5230153;28;20029;-73
2023/09/20 07:01:32;;;;;;;5.97;1.20;;;;;;;18.95;89.68;100054.38;5230768;28;20024;-72
2023/09/20 07:04:04;;;;;;;7.65;1.27;;;;;;;19.12;89.33;100054.72;5227954;28;20032;-73
2023/09/20 07:06:35;;;;;;;5.95;1.45;;;;;;;19.13;90.11;100052.94;5228189;28;20544;-73
2023/09/20 07:09:05;;;;;;;6.60;1.75;;;;;;;19.41;89.70;100055.97;5224709;28;20029;-70
2023/09/20 07:11:37;;;;;;;3.85;0.98;;;;;;;21.32;80.83;100041.38;5220832;28;20035;-73
2023/09/20 07:14:07;;;;;;;2.88;1.00;;;;;;;22.67;75.51;100043.06;5231835;28;20257;-73
2023/09/20 07:16:39;;;;;;;3.50;0.98;;;;;;;23.81;72.82;100039.91;5224843;28;20115;-74
2023/09/20 07:19:13;;;;;;;3.20;1.02;;;;;;;25.03;69.51;100034.47;5226738;28;20497;-73
2023/09/20 07:21:46;;;;;;;3.53;0.80;;;;;;;25.60;66.44;100035.56;5226027;28;20034;-74
2023/09/20 07:24:16;;;;;;;4.07;1.00;;;;;;;27.85;61.68;100036.06;5231550;28;20066;-74
2023/09/20 07:26:46;;;;;;;2.73;0.80;;;;;;;28.22;61.04;100037.97;5224104;28;20024;-73
2023/09/20 07:29:21;;;;;;;2.05;0.80;;;;;;;27.92;59.86;100045.06;5228312;28;20658;-73
2023/09/20 07:31:52;;;;;;;1.98;0.98;;;;;;;28.11;60.47;100039.22;5227707;28;20070;-73
2023/09/20 07:34:23;;;;;;;2.40;0.95;;;;;;;27.86;60.69;100037.72;5230414;28;20024;-74
2023/09/20 07:36:54;;;;;;;2.58;0.90;;;;;;;27.53;62.93;100038.03;5229005;28;20031;-74
2023/09/20 07:39:25;;;;;;;2.22;0.98;;;;;;;28.27;59.41;100030.22;5226756;28;20249;-73
2023/09/20 07:41:58;;;;;;;3.00;0.93;;;;;;;28.31;59.67;100034.25;5225267;28;20036;-74
2023/09/20 07:44:30;;;;;;;1.73;0.80;;;;;;;27.23;63.07;100038.81;5222703;28;20025;-74
2023/09/20 07:47:00;;;;;;;1.90;0.80;;;;;;;28.97;58.12;100038.69;5223361;28;20026;-74
2023/09/20 07:49:32;;;;;;;2.57;0.63;;;;;;;28.96;60.14;100036.16;5230243;28;20439;-74
2023/09/20 07:52:04;;;;;;;2.40;0.80;;;;;;;28.71;59.24;100045.50;5229288;28;20036;-74
2023/09/20 07:54:34;;;;;;;3.15;1.08;;;;;;;29.70;56.84;100035.97;5230817;28;20044;-74
2023/09/20 07:57:04;;;;;;;2.85;0.80;;;;;;;29.27;58.58;100050.28;5231067;28;20063;-74
2023/09/20 07:59:37;;;;;;;3.27;0.83;;;;;;;29.00;58.18;100041.00;5227714;28;20078;-74
2023/09/20 08:02:09;;;;;;;2.85;0.90;;;;;;;29.91;57.47;100036.84;5233365;28;20275;-73
2023/09/20 08:04:39;;;;;;;3.13;0.90;;;;;;;30.83;55.36;100033.19;5232758;28;20029;-73
2023/09/20 08:07:10;;;;;;;2.37;0.90;;;;;;;30.33;55.55;100038.75;5236808;28;20036;-74
2023/09/20 08:09:40;;;;;;;2.88;1.13;;;;;;;29.76;56.88;100035.22;5233273;28;20080;-74
2023/09/20 08:12:11;;;;;;;4.50;0.80;;;;;;;28.50;58.73;100045.31;5235836;28;20362;-73
2023/09/20 08:14:42;;;;;;;2.05;0.82;;;;;;;29.74;58.25;100043.47;5235739;28;20078;-74
2023/09/20 08:20:05;;;;;;;2.15;0.98;;;;;;;28.57;58.56;100042.75;5234903;28;20082;-74
2023/09/20 09:02:15;;;;;;;2.55;0.90;;;;;;;27.52;60.49;100039.88;5220131;28;20098;-74
2023/09/20 09:04:48;;;;;;;2.70;0.85;;;;;;;28.14;59.51;100033.47;5223423;28;20032;-73
2023/09/20 09:07:25;;;;;;;5.38;1.00;;;;;;;29.05;58.10;100040.47;5225411;28;20033;-74
2023/09/20 09:09:55;;;;;;;2.95;0.98;;;;;;;28.30;58.92;100032.53;5224807;28;20651;-74
2023/09/20 09:12:25;;;;;;;2.28;0.70;;;;;;;27.68;60.09;100038.97;5222000;28;20079;-72
2023/09/20 09:14:56;;;;;;;3.63;1.07;;;;;;;26.95;61.94;100043.72;5223650;28;20055;-73
2023/09/20 09:17:26;;;;;;;2.00;0.87;;;;;;;26.28;64.52;100047.78;5217758;28;20276;-72
2023/09/20 09:19:57;;;;;;;2.35;0.80;;;;;;;26.01;64.96;100040.06;5223550;28;20373;-73
2023/09/20 09:22:28;;;;;;;1.45;0.65;;;;;;;25.90;65.27;100037.69;5226117;28;20315;-73
2023/09/20 09:24:58;;;;;;;4.07;1.05;;;;;;;25.49;65.07;100033.19;5215353;28;20375;-73
2023/09/20 09:27:31;;;;;;;4.47;0.80;;;;;;;25.69;66.10;100034.59;5224057;28;20080;-72
2023/09/20 09:30:01;;;;;;;2.22;0.90;;;;;;;24.89;67.45;100034.19;5226610;28;20025;-72
2023/09/20 09:32:36;;;;;;;1.83;0.80;;;;;;;24.06;68.68;100033.84;5226084;28;20032;-71
2023/09/20 09:35:07;;;;;;;2.20;0.98;;;;;;;24.04;69.66;100030.50;5216312;28;20021;-72
2023/09/20 09:37:39;;;;;;;4.22;1.00;;;;;;;23.80;71.03;100034.72;5223581;28;20036;-72
2023/09/20 09:40:11;;;;;;;3.55;1.10;;;;;;;23.50;73.09;100025.22;5225028;28;20099;-73
2023/09/20 09:42:43;;;;;;;2.80;1.08;;;;;;;23.53;74.31;100030.25;5225928;28;20492;-72
2023/09/20 09:45:29;;;;;;;1.80;0.70;;;;;;;23.40;74.07;100034.25;5218474;28;20033;-72
2023/09/20 09:48:05;;;;;;;2.40;0.88;;;;;;;23.32;73.19;100034.16;5220406;28;20025;-73
2023/09/20 09:50:40;;;;;;;3.22;1.13;;;;;;;23.43;73.14;100033.97;5218607;28;20134;-72
2023/09/20 09:53:13;;;;;;;3.17;1.00;;;;;;;23.31;73.71;100029.81;5222227;28;20100;-72
2023/09/20 09:55:46;;;;;;;2.85;0.98;;;;;;;23.73;73.54;100034.47;5220018;28;20134;-72
2023/09/20 09:58:17;;;;;;;2.83;0.90;;;;;;;23.68;73.66;100034.09;5221829;28;20032;-72
2023/09/20 10:00:49;;;;;;;3.45;0.88;;;;;;;23.72;72.13;100024.78;5219304;28;20033;-71
2023/09/20 10:03:32;;;;;;;3.22;1.00;;;;;;;23.93;72.03;100028.06;5219591;28;20163;-72
2023/09/20 10:06:15;;;;;;;4.18;1.00;;;;;;;23.81;72.93;100026.56;5223995;28;20067;-73
2023/09/20 10:08:53;;;;;;;4.15;0.70;;;;;;;23.67;74.37;100026.25;5225872;28;20052;-73
2023/09/20 10:11:25;;;;;;;2.33;0.85;;;;;;;23.71;73.02;100019.63;5218734;28;20029;-72
2023/09/20 10:13:57;;;;;;;2.17;0.90;;;;;;;23.51;73.71;100026.91;5222676;28;20090;-73
2023/09/20 10:16:28;;;;;;;1.48;0.70;;;;;;;23.16;73.65;100015.31;5221255;28;20432;-73
2023/09/20 10:18:58;;;;;;;3.00;0.90;;;;;;;23.22;74.86;100020.03;5218841;28;20257;-72
2023/09/20 10:21:30;;;;;;;1.70;0.60;;;;;;;23.25;74.63;100019.75;5217530;28;20022;-73
2023/09/20 10:24:05;;;;;;;2.90;1.25;;;;;;;23.28;74.03;100019.44;5222774;28;20020;-73
2023/09/20 10:26:40;;;;;;;2.97;0.88;;;;;;;23.34;75.01;100018.88;5223735;28;20063;-73
2023/09/20 10:29:26;;;;;;;2.50;0.80;;;;;;;23.37;74.68;100018.56;5219094;28;20367;-72
2023/09/20 10:32:13;;;;;;;1.75;0.70;;;;;;;23.77;74.81;100006.50;5223716;28;20508;-72
2023/09/20 10:35:31;;;;;;;2.50;0.80;;;;;;;23.76;74.32;100004.84;5223308;28;20620;-73
2023/09/20 10:38:04;;;;;;;1.55;0.60;;;;;;;23.72;74.17;99999.94;5224050;28;20104;-73
2023/09/20 10:40:44;;;;;;;3.92;0.85;;;;;;;23.92;74.85;100002.34;5219884;28;20544;-72
2023/09/20 10:43:46;;;;;;;2.40;0.80;;;;;;;23.97;75.98;99996.53;5222037;28;20059;-73
2023/09/20 10:46:18;;;;;;;2.40;0.90;;;;;;;23.68;75.94;99990.56;5208652;28;20449;-73
2023/09/20 10:48:50;;;;;;;1.55;0.70;;;;;;;23.53;75.54;99990.22;5220085;28;20496;-73
2023/09/20 10:51:43;;;;;;;2.40;0.73;;;;;;;23.59;75.56;99988.78;5219106;28;20492;-72
2023/09/20 10:54:17;;;;;;;1.98;0.63;;;;;;;23.63;75.00;99987.50;5218757;28;20734;-73
2023/09/20 10:56:50;;;;;;;3.60;0.90;;;;;;;23.72;76.01;99987.41;5221722;28;20024;-72
2023/09/20 10:59:25;;;;;;;5.07;0.90;;;;;;;23.47;76.16;99990.84;5220198;28;20036;-73
2023/09/20 11:01:58;;;;;;;2.42;0.90;;;;;;;23.71;76.40;99993.75;5219859;28;20040;-71
2023/09/20 11:04:31;;;;;;;2.80;0.80;;;;;;;23.69;75.50;99997.59;5220099;28;20021;-72
2023/09/20 11:07:02;;;;;;;1.88;0.70;;;;;;;23.78;76.86;99983.31;5223381;28;20112;-73
2023/09/20 11:09:34;;;;;;;1.45;0.60;;;;;;;23.71;75.76;99985.75;5221167;28;20119;-73
2023/09/20 11:12:06;;;;;;;3.55;0.88;;;;;;;23.75;76.01;99981.81;5217237;28;20407;-72
2023/09/20 11:14:39;;;;;;;2.70;0.80;;;;;;;23.99;77.39;99984.72;5222018;28;20494;-73
2023/09/20 11:17:15;;;;;;;3.35;0.90;;;;;;;23.86;75.47;99976.25;5219130;28;20463;-73
2023/09/20 11:19:47;;;;;;;2.65;1.00;;;;;;;23.87;75.78;99975.25;5223227;28;20032;-73
2023/09/20 11:22:20;;;;;;;1.63;0.70;;;;;;;23.90;76.27;99963.44;5217953;28;20033;-72
2023/09/20 11:24:51;;;;;;;1.75;0.90;;;;;;;23.94;75.17;99952.31;5222855;28;20028;-73
2023/09/20 11:27:23;;;;;;;6.50;1.10;;;;;;;23.93;77.67;99945.28;5221963;28;20017;-73
2023/09/20 11:30:04;;;;;;;2.45;0.80;;;;;;;24.20;76.07;99958.53;5220132;28;20370;-73
2023/09/20 11:32:36;;;;;;;1.70;0.60;;;;;;;24.21;73.15;99952.19;5220673;28;20074;-73
2023/09/20 11:35:07;;;;;;;3.50;0.80;;;;;;;24.18;72.04;99952.50;5220295;28;20031;-72
2023/09/20 11:37:38;;;;;;;3.78;1.00;;;;;;;24.18;73.06;99952.50;5228871;28;20033;-72
2023/09/20 11:40:08;;;;;;;2.92;1.00;;;;;;;24.25;73.14;99945.53;5223938;28;20522;-72
2023/09/20 11:42:43;;;;;;;1.63;0.60;;;;;;;24.27;73.56;99954.25;5225313;28;20041;-73
2023/09/20 11:45:16;;;;;;;2.70;0.80;;;;;;;24.44;73.01;99957.84;5218394;28;20021;-73
2023/09/20 11:47:48;;;;;;;4.15;0.90;;;;;;;24.64;75.31;99952.19;5224709;28;20039;-73
2023/09/20 11:50:21;;;;;;;3.00;0.70;;;;;;;24.92;74.64;99954.50;5223599;28;20017;-72
2023/09/20 11:52:53;;;;;;;3.28;0.73;;;;;;;24.84;74.27;99951.78;5221575;28;20034;-73
2023/09/20 11:55:26;;;;;;;2.85;0.68;;;;;;;24.79;71.82;99948.75;5223552;28;20029;-73
2023/09/20 11:57:59;;;;;;;1.85;0.65;;;;;;;24.69;70.12;99952.53;5226728;28;20043;-72
2023/09/20 12:00:30;;;;;;;1.23;0.60;;;;;;;24.54;71.60;99959.47;5225710;28;20025;-73
2023/09/20 12:03:00;;;;;;;1.67;0.80;;;;;;;24.58;69.65;99947.44;5226907;28;20511;-72
2023/09/20 12:05:33;;;;;;;3.15;0.85;;;;;;;24.52;72.61;99961.44;5225596;28;20043;-73
2023/09/20 12:08:06;;;;;;;1.92;0.70;;;;;;;24.48;70.23;99967.22;5227300;28;20197;-73
2023/09/20 12:10:36;;;;;;;2.22;0.60;;;;;;;24.45;70.65;99965.72;5219711;28;20125;-73
2023/09/20 12:13:07;;;;;;;2.85;0.90;;;;;;;24.53;73.10;99963.13;5220333;28;20487;-72
2023/09/20 12:15:42;;;;;;;2.95;0.80;;;;;;;24.53;71.42;99967.66;5219060;28;20394;-72
2023/09/20 12:18:14;;;;;;;2.00;0.70;;;;;;;24.67;72.97;99964.38;5222535;28;20024;-73
2023/09/20 12:20:44;;;;;;;1.88;0.60;;;;;;;24.75;73.28;99970.59;5226928;28;20024;-73
2023/09/20 12:23:17;;;;;;;3.47;0.60;;;;;;;24.69;71.89;99963.22;5225047;28;20040;-73
2023/09/20 12:25:47;;;;;;;1.15;0.70;;;;;;;24.46;70.62;99972.75;5224489;28;20078;-73
2023/09/20 12:28:17;;;;;;;4.72;0.63;;;;;;;24.49;71.19;99974.25;5224087;28;20059;-72
2023/09/20 12:30:49;;;;;;;2.55;0.70;;;;;;;24.35;71.72;99964.97;5226489;28;20084;-72
2023/09/20 12:33:19;;;;;;;7.10;0.80;;;;;;;24.27;72.44;99956.06;5224608;28;20021;-73